sensor_id;sensor_type;location;lat;lon;timestamp;P1;durP1;ratioP1;P2;durP2;ratioP2
41468;SDS011;27206;47.032;15.484;2023-11-21T00:00:09;29.15;;;15.07;;
41468;SDS011;27206;47.032;15.484;2023-11-21T00:02:37;23.98;;;14.40;;
41468;SDS011;27206;47.032;15.484;2023-11-21T00:05:05;21.02;;;13.95;;
41468;SDS011;27206;47.032;15.484;2023-11-21T00:07:35;20.67;;;13.07;;
41468;SDS011;27206;47.032;15.484;2023-11-21T00:10:02;22.48;;;14.30;;
41468;SDS011;27206;47.032;15.484;2023-11-21T00:12:28;26.75;;;14.23;;
41468;SDS011;27206;47.032;15.484;2023-11-21T00:14:54;24.42;;;13.60;;
41468;SDS011;27206;47.032;15.484;2023-11-21T00:17:20;25.95;;;14.25;;
41468;SDS011;27206;47.032;15.484;2023-11-21T00:19:46;23.65;;;13.75;;
41468;SDS011;27206;47.032;15.484;2023-11-21T00:22:11;25.25;;;13.25;;
41468;SDS011;27206;47.032;15.484;2023-11-21T00:24:37;26.42;;;13.20;;
41468;SDS011;27206;47.032;15.484;2023-11-21T00:27:02;25.48;;;13.65;;
41468;SDS011;27206;47.032;15.484;2023-11-21T00:29:28;21.33;;;13.45;;
41468;SDS011;27206;47.032;15.484;2023-11-21T00:31:54;24.40;;;13.15;;
41468;SDS011;27206;47.032;15.484;2023-11-21T00:34:20;24.20;;;13.55;;
41468;SDS011;27206;47.032;15.484;2023-11-21T00:36:45;23.00;;;12.75;;
41468;SDS011;27206;47.032;15.484;2023-11-21T00:39:11;25.27;;;13.02;;
41468;SDS011;27206;47.032;15.484;2023-11-21T00:41:37;22.98;;;14.05;;
41468;SDS011;27206;47.032;15.484;2023-11-21T00:44:02;23.75;;;12.82;;
41468;SDS011;27206;47.032;15.484;2023-11-21T00:46:28;25.48;;;13.80;;
41468;SDS011;27206;47.032;15.484;2023-11-21T00:48:54;23.80;;;14.00;;
41468;SDS011;27206;47.032;15.484;2023-11-21T00:51:20;21.50;;;13.88;;
41468;SDS011;27206;47.032;15.484;2023-11-21T00:53:47;22.55;;;14.10;;
41468;SDS011;27206;47.032;15.484;2023-11-21T00:56:13;23.70;;;13.00;;
41468;SDS011;27206;47.032;15.484;2023-11-21T00:58:39;25.25;;;13.80;;
41468;SDS011;27206;47.032;15.484;2023-11-21T01:01:08;23.40;;;13.57;;
41468;SDS011;27206;47.032;15.484;2023-11-21T01:03:34;23.63;;;14.05;;
41468;SDS011;27206;47.032;15.484;2023-11-21T01:06:00;24.08;;;13.10;;
41468;SDS011;27206;47.032;15.484;2023-11-21T01:08:26;24.63;;;13.43;;
41468;SDS011;27206;47.032;15.484;2023-11-21T01:10:52;22.67;;;12.45;;
41468;SDS011;27206;47.032;15.484;2023-11-21T01:13:17;20.15;;;12.10;;
41468;SDS011;27206;47.032;15.484;2023-11-21T01:15:43;21.85;;;12.45;;
41468;SDS011;27206;47.032;15.484;2023-11-21T01:18:09;24.50;;;12.05;;
41468;SDS011;27206;47.032;15.484;2023-11-21T01:20:34;24.23;;;11.40;;
41468;SDS011;27206;47.032;15.484;2023-11-21T01:23:00;18.15;;;11.32;;
41468;SDS011;27206;47.032;15.484;2023-11-21T01:25:26;18.63;;;11.88;;
41468;SDS011;27206;47.032;15.484;2023-11-21T01:27:51;21.40;;;11.00;;
41468;SDS011;27206;47.032;15.484;2023-11-21T01:30:17;21.90;;;11.38;;
41468;SDS011;27206;47.032;15.484;2023-11-21T01:32:43;18.33;;;11.25;;
41468;SDS011;27206;47.032;15.484;2023-11-21T01:35:09;21.77;;;11.07;;
41468;SDS011;27206;47.032;15.484;2023-11-21T01:37:35;22.00;;;11.73;;
41468;SDS011;27206;47.032;15.484;2023-11-21T01:40:02;18.05;;;10.80;;
41468;SDS011;27206;47.032;15.484;2023-11-21T01:42:30;20.35;;;11.57;;
41468;SDS011;27206;47.032;15.484;2023-11-21T01:44:56;22.13;;;11.77;;
41468;SDS011;27206;47.032;15.484;2023-11-21T01:47:22;21.98;;;11.60;;
41468;SDS011;27206;47.032;15.484;2023-11-21T01:49:47;22.75;;;12.15;;
41468;SDS011;27206;47.032;15.484;2023-11-21T01:52:13;23.75;;;13.05;;
41468;SDS011;27206;47.032;15.484;2023-11-21T01:54:39;23.15;;;12.25;;
41468;SDS011;27206;47.032;15.484;2023-11-21T01:57:06;21.08;;;12.93;;
41468;SDS011;27206;47.032;15.484;2023-11-21T01:59:35;21.48;;;12.75;;
41468;SDS011;27206;47.032;15.484;2023-11-21T02:02:03;20.98;;;12.20;;
41468;SDS011;27206;47.032;15.484;2023-11-21T02:04:31;23.65;;;13.27;;
41468;SDS011;27206;47.032;15.484;2023-11-21T02:07:01;24.05;;;13.02;;
41468;SDS011;27206;47.032;15.484;2023-11-21T02:09:30;24.83;;;13.30;;
41468;SDS011;27206;47.032;15.484;2023-11-21T02:11:58;22.75;;;13.15;;
41468;SDS011;27206;47.032;15.484;2023-11-21T02:14:25;25.27;;;12.98;;
41468;SDS011;27206;47.032;15.484;2023-11-21T02:16:52;24.73;;;13.20;;
41468;SDS011;27206;47.032;15.484;2023-11-21T02:19:19;22.90;;;12.85;;
41468;SDS011;27206;47.032;15.484;2023-11-21T02:21:49;23.73;;;12.35;;
41468;SDS011;27206;47.032;15.484;2023-11-21T02:24:18;22.83;;;12.82;;
41468;SDS011;27206;47.032;15.484;2023-11-21T02:26:44;18.85;;;11.32;;
41468;SDS011;27206;47.032;15.484;2023-11-21T02:29:10;20.92;;;11.60;;
41468;SDS011;27206;47.032;15.484;2023-11-21T02:31:38;18.73;;;10.65;;
41468;SDS011;27206;47.032;15.484;2023-11-21T02:34:13;20.08;;;11.25;;
41468;SDS011;27206;47.032;15.484;2023-11-21T02:36:42;17.13;;;9.68;;
41468;SDS011;27206;47.032;15.484;2023-11-21T02:39:09;15.68;;;8.95;;
41468;SDS011;27206;47.032;15.484;2023-11-21T02:41:39;15.82;;;9.52;;
41468;SDS011;27206;47.032;15.484;2023-11-21T02:44:05;17.02;;;9.07;;
41468;SDS011;27206;47.032;15.484;2023-11-21T02:46:35;13.57;;;7.50;;
41468;SDS011;27206;47.032;15.484;2023-11-21T02:49:01;15.00;;;7.95;;
41468;SDS011;27206;47.032;15.484;2023-11-21T02:51:28;14.82;;;7.70;;
41468;SDS011;27206;47.032;15.484;2023-11-21T02:53:54;11.82;;;7.22;;
41468;SDS011;27206;47.032;15.484;2023-11-21T02:56:23;13.85;;;7.32;;
41468;SDS011;27206;47.032;15.484;2023-11-21T02:58:49;13.75;;;7.53;;
41468;SDS011;27206;47.032;15.484;2023-11-21T03:01:15;12.38;;;7.00;;
41468;SDS011;27206;47.032;15.484;2023-11-21T03:03:41;12.35;;;7.32;;
41468;SDS011;27206;47.032;15.484;2023-11-21T03:06:07;10.90;;;7.03;;
41468;SDS011;27206;47.032;15.484;2023-11-21T03:08:33;12.40;;;7.38;;
41468;SDS011;27206;47.032;15.484;2023-11-21T03:10:59;14.63;;;6.93;;
41468;SDS011;27206;47.032;15.484;2023-11-21T03:13:25;13.48;;;7.63;;
41468;SDS011;27206;47.032;15.484;2023-11-21T03:15:51;14.57;;;7.88;;
41468;SDS011;27206;47.032;15.484;2023-11-21T03:18:17;13.95;;;7.65;;
41468;SDS011;27206;47.032;15.484;2023-11-21T03:20:43;16.13;;;7.90;;
41468;SDS011;27206;47.032;15.484;2023-11-21T03:23:11;13.52;;;7.30;;
41468;SDS011;27206;47.032;15.484;2023-11-21T03:25:37;14.30;;;7.70;;
41468;SDS011;27206;47.032;15.484;2023-11-21T03:28:02;11.80;;;6.93;;
41468;SDS011;27206;47.032;15.484;2023-11-21T03:30:28;14.00;;;7.63;;
41468;SDS011;27206;47.032;15.484;2023-11-21T03:32:54;15.38;;;8.40;;
41468;SDS011;27206;47.032;15.484;2023-11-21T03:35:20;17.15;;;8.65;;
41468;SDS011;27206;47.032;15.484;2023-11-21T03:37:46;14.05;;;7.68;;
41468;SDS011;27206;47.032;15.484;2023-11-21T03:40:12;12.35;;;7.72;;
41468;SDS011;27206;47.032;15.484;2023-11-21T03:42:38;14.90;;;8.45;;
41468;SDS011;27206;47.032;15.484;2023-11-21T03:45:04;16.60;;;8.05;;
41468;SDS011;27206;47.032;15.484;2023-11-21T03:47:31;15.23;;;8.30;;
41468;SDS011;27206;47.032;15.484;2023-11-21T03:49:57;15.52;;;8.77;;
41468;SDS011;27206;47.032;15.484;2023-11-21T03:52:22;13.30;;;8.10;;
41468;SDS011;27206;47.032;15.484;2023-11-21T03:54:49;14.40;;;8.25;;
41468;SDS011;27206;47.032;15.484;2023-11-21T03:57:14;15.02;;;9.35;;
41468;SDS011;27206;47.032;15.484;2023-11-21T03:59:40;15.00;;;9.35;;
41468;SDS011;27206;47.032;15.484;2023-11-21T04:02:06;15.55;;;9.15;;
41468;SDS011;27206;47.032;15.484;2023-11-21T04:04:32;17.70;;;9.75;;
41468;SDS011;27206;47.032;15.484;2023-11-21T04:06:59;17.50;;;9.15;;
41468;SDS011;27206;47.032;15.484;2023-11-21T04:09:24;16.08;;;10.07;;
41468;SDS011;27206;47.032;15.484;2023-11-21T04:11:53;18.10;;;10.35;;
41468;SDS011;27206;47.032;15.484;2023-11-21T04:14:19;17.83;;;9.95;;
41468;SDS011;27206;47.032;15.484;2023-11-21T04:16:45;19.13;;;11.07;;
41468;SDS011;27206;47.032;15.484;2023-11-21T04:19:11;15.65;;;9.93;;
41468;SDS011;27206;47.032;15.484;2023-11-21T04:21:39;19.42;;;10.57;;
41468;SDS011;27206;47.032;15.484;2023-11-21T04:24:05;19.13;;;10.10;;
41468;SDS011;27206;47.032;15.484;2023-11-21T04:26:31;18.92;;;10.00;;
41468;SDS011;27206;47.032;15.484;2023-11-21T04:28:57;19.83;;;10.43;;
41468;SDS011;27206;47.032;15.484;2023-11-21T04:31:23;17.55;;;10.57;;
41468;SDS011;27206;47.032;15.484;2023-11-21T04:33:48;16.63;;;10.48;;
41468;SDS011;27206;47.032;15.484;2023-11-21T04:36:14;19.52;;;10.07;;
41468;SDS011;27206;47.032;15.484;2023-11-21T04:38:39;19.35;;;10.77;;
41468;SDS011;27206;47.032;15.484;2023-11-21T04:41:06;16.23;;;9.75;;
41468;SDS011;27206;47.032;15.484;2023-11-21T04:43:31;18.73;;;10.25;;
41468;SDS011;27206;47.032;15.484;2023-11-21T04:45:57;16.98;;;9.95;;
41468;SDS011;27206;47.032;15.484;2023-11-21T04:48:22;15.85;;;9.52;;
41468;SDS011;27206;47.032;15.484;2023-11-21T04:50:48;14.38;;;8.10;;
41468;SDS011;27206;47.032;15.484;2023-11-21T04:53:14;11.70;;;7.90;;
41468;SDS011;27206;47.032;15.484;2023-11-21T04:55:42;13.30;;;8.02;;
41468;SDS011;27206;47.032;15.484;2023-11-21T04:58:09;15.63;;;9.02;;
41468;SDS011;27206;47.032;15.484;2023-11-21T05:00:35;14.77;;;8.60;;
41468;SDS011;27206;47.032;15.484;2023-11-21T05:03:01;11.63;;;7.65;;
41468;SDS011;27206;47.032;15.484;2023-11-21T05:05:28;16.25;;;8.63;;
41468;SDS011;27206;47.032;15.484;2023-11-21T05:07:54;14.68;;;8.00;;
41468;SDS011;27206;47.032;15.484;2023-11-21T05:10:20;12.85;;;8.23;;
41468;SDS011;27206;47.032;15.484;2023-11-21T05:12:47;14.68;;;8.70;;
41468;SDS011;27206;47.032;15.484;2023-11-21T05:15:15;11.63;;;7.40;;
41468;SDS011;27206;47.032;15.484;2023-11-21T05:17:42;17.05;;;7.75;;
41468;SDS011;27206;47.032;15.484;2023-11-21T05:20:12;13.38;;;8.77;;
41468;SDS011;27206;47.032;15.484;2023-11-21T05:22:42;16.90;;;10.05;;
41468;SDS011;27206;47.032;15.484;2023-11-21T05:25:08;21.02;;;11.15;;
41468;SDS011;27206;47.032;15.484;2023-11-21T05:27:34;20.30;;;11.90;;
41468;SDS011;27206;47.032;15.484;2023-11-21T05:30:03;25.45;;;13.10;;
41468;SDS011;27206;47.032;15.484;2023-11-21T05:32:31;22.10;;;12.82;;
41468;SDS011;27206;47.032;15.484;2023-11-21T05:35:00;25.05;;;13.43;;
41468;SDS011;27206;47.032;15.484;2023-11-21T05:37:26;21.92;;;13.07;;
41468;SDS011;27206;47.032;15.484;2023-11-21T05:39:55;22.92;;;13.68;;
41468;SDS011;27206;47.032;15.484;2023-11-21T05:42:24;25.83;;;12.98;;
41468;SDS011;27206;47.032;15.484;2023-11-21T05:44:50;30.23;;;14.30;;
41468;SDS011;27206;47.032;15.484;2023-11-21T05:47:16;21.80;;;12.52;;
41468;SDS011;27206;47.032;15.484;2023-11-21T05:49:42;22.98;;;13.70;;
41468;SDS011;27206;47.032;15.484;2023-11-21T05:52:07;23.13;;;12.98;;
41468;SDS011;27206;47.032;15.484;2023-11-21T05:54:33;23.10;;;13.65;;
41468;SDS011;27206;47.032;15.484;2023-11-21T05:56:59;23.70;;;12.52;;
41468;SDS011;27206;47.032;15.484;2023-11-21T05:59:25;21.67;;;12.70;;
41468;SDS011;27206;47.032;15.484;2023-11-21T06:01:50;23.33;;;13.80;;
41468;SDS011;27206;47.032;15.484;2023-11-21T06:04:17;23.17;;;13.23;;
41468;SDS011;27206;47.032;15.484;2023-11-21T06:06:43;21.63;;;12.38;;
41468;SDS011;27206;47.032;15.484;2023-11-21T06:09:09;21.13;;;13.00;;
41468;SDS011;27206;47.032;15.484;2023-11-21T06:11:35;23.02;;;12.75;;
41468;SDS011;27206;47.032;15.484;2023-11-21T06:14:01;19.83;;;12.98;;
41468;SDS011;27206;47.032;15.484;2023-11-21T06:16:27;26.10;;;12.55;;
41468;SDS011;27206;47.032;15.484;2023-11-21T06:18:53;23.38;;;13.15;;
41468;SDS011;27206;47.032;15.484;2023-11-21T06:21:18;22.48;;;13.10;;
41468;SDS011;27206;47.032;15.484;2023-11-21T06:23:44;22.08;;;12.80;;
41468;SDS011;27206;47.032;15.484;2023-11-21T06:26:09;19.58;;;12.25;;
41468;SDS011;27206;47.032;15.484;2023-11-21T06:28:35;22.67;;;12.05;;
41468;SDS011;27206;47.032;15.484;2023-11-21T06:31:01;22.00;;;12.50;;
41468;SDS011;27206;47.032;15.484;2023-11-21T06:33:32;21.33;;;12.25;;
41468;SDS011;27206;47.032;15.484;2023-11-21T06:35:58;20.10;;;11.30;;
41468;SDS011;27206;47.032;15.484;2023-11-21T06:38:28;17.52;;;11.07;;
41468;SDS011;27206;47.032;15.484;2023-11-21T06:40:55;22.55;;;11.20;;
41468;SDS011;27206;47.032;15.484;2023-11-21T06:43:23;17.63;;;10.45;;
41468;SDS011;27206;47.032;15.484;2023-11-21T06:45:48;19.27;;;11.50;;
41468;SDS011;27206;47.032;15.484;2023-11-21T06:48:14;18.15;;;10.45;;
41468;SDS011;27206;47.032;15.484;2023-11-21T06:50:40;18.70;;;10.80;;
41468;SDS011;27206;47.032;15.484;2023-11-21T06:53:06;23.25;;;10.48;;
41468;SDS011;27206;47.032;15.484;2023-11-21T06:55:33;20.83;;;10.95;;
41468;SDS011;27206;47.032;15.484;2023-11-21T06:57:58;18.85;;;10.32;;
41468;SDS011;27206;47.032;15.484;2023-11-21T07:00:25;19.27;;;11.07;;
41468;SDS011;27206;47.032;15.484;2023-11-21T07:02:53;17.92;;;10.32;;
41468;SDS011;27206;47.032;15.484;2023-11-21T07:05:20;17.90;;;9.93;;
41468;SDS011;27206;47.032;15.484;2023-11-21T07:07:47;18.50;;;12.02;;
41468;SDS011;27206;47.032;15.484;2023-11-21T07:10:14;24.90;;;12.25;;
41468;SDS011;27206;47.032;15.484;2023-11-21T07:12:40;19.23;;;12.52;;
41468;SDS011;27206;47.032;15.484;2023-11-21T07:15:06;20.58;;;12.93;;
41468;SDS011;27206;47.032;15.484;2023-11-21T07:17:34;21.08;;;13.18;;
41468;SDS011;27206;47.032;15.484;2023-11-21T07:20:00;19.35;;;12.85;;
41468;SDS011;27206;47.032;15.484;2023-11-21T07:22:27;20.48;;;13.02;;
41468;SDS011;27206;47.032;15.484;2023-11-21T07:24:52;19.35;;;11.95;;
41468;SDS011;27206;47.032;15.484;2023-11-21T07:27:18;21.88;;;12.02;;
41468;SDS011;27206;47.032;15.484;2023-11-21T07:29:44;19.83;;;12.32;;
41468;SDS011;27206;47.032;15.484;2023-11-21T07:32:10;20.90;;;12.35;;
41468;SDS011;27206;47.032;15.484;2023-11-21T07:34:36;19.10;;;12.43;;
41468;SDS011;27206;47.032;15.484;2023-11-21T07:37:02;21.15;;;12.55;;
41468;SDS011;27206;47.032;15.484;2023-11-21T07:39:28;26.98;;;13.32;;
41468;SDS011;27206;47.032;15.484;2023-11-21T07:41:53;23.85;;;13.57;;
41468;SDS011;27206;47.032;15.484;2023-11-21T07:44:20;24.50;;;13.38;;
41468;SDS011;27206;47.032;15.484;2023-11-21T07:46:46;28.75;;;15.25;;
41468;SDS011;27206;47.032;15.484;2023-11-21T07:49:14;29.48;;;15.65;;
41468;SDS011;27206;47.032;15.484;2023-11-21T07:51:42;26.05;;;14.63;;
41468;SDS011;27206;47.032;15.484;2023-11-21T07:54:08;26.92;;;14.40;;
41468;SDS011;27206;47.032;15.484;2023-11-21T07:56:35;24.20;;;13.93;;
41468;SDS011;27206;47.032;15.484;2023-11-21T07:59:00;18.90;;;12.82;;
41468;SDS011;27206;47.032;15.484;2023-11-21T08:01:26;21.48;;;13.07;;
41468;SDS011;27206;47.032;15.484;2023-11-21T08:03:53;21.23;;;13.32;;
41468;SDS011;27206;47.032;15.484;2023-11-21T08:06:21;24.42;;;12.88;;
41468;SDS011;27206;47.032;15.484;2023-11-21T08:08:48;20.58;;;12.70;;
41468;SDS011;27206;47.032;15.484;2023-11-21T08:11:14;24.10;;;13.25;;
41468;SDS011;27206;47.032;15.484;2023-11-21T08:13:40;24.92;;;13.38;;
41468;SDS011;27206;47.032;15.484;2023-11-21T08:16:05;21.52;;;12.95;;
41468;SDS011;27206;47.032;15.484;2023-11-21T08:18:32;23.88;;;13.80;;
41468;SDS011;27206;47.032;15.484;2023-11-21T08:20:59;19.73;;;13.13;;
41468;SDS011;27206;47.032;15.484;2023-11-21T08:23:25;23.90;;;12.55;;
41468;SDS011;27206;47.032;15.484;2023-11-21T08:25:51;20.45;;;13.23;;
41468;SDS011;27206;47.032;15.484;2023-11-21T08:28:18;21.77;;;12.52;;
41468;SDS011;27206;47.032;15.484;2023-11-21T08:30:44;18.95;;;12.30;;
41468;SDS011;27206;47.032;15.484;2023-11-21T08:33:10;19.00;;;11.10;;
41468;SDS011;27206;47.032;15.484;2023-11-21T08:35:39;18.83;;;11.70;;
41468;SDS011;27206;47.032;15.484;2023-11-21T08:38:04;20.38;;;12.05;;
41468;SDS011;27206;47.032;15.484;2023-11-21T08:40:31;20.55;;;11.75;;
41468;SDS011;27206;47.032;15.484;2023-11-21T08:42:57;20.13;;;11.68;;
41468;SDS011;27206;47.032;15.484;2023-11-21T08:45:24;21.42;;;12.13;;
41468;SDS011;27206;47.032;15.484;2023-11-21T08:47:56;19.42;;;11.98;;
41468;SDS011;27206;47.032;15.484;2023-11-21T08:50:21;18.98;;;10.80;;
41468;SDS011;27206;47.032;15.484;2023-11-21T08:52:47;18.20;;;11.18;;
41468;SDS011;27206;47.032;15.484;2023-11-21T08:55:14;18.55;;;10.02;;
41468;SDS011;27206;47.032;15.484;2023-11-21T08:57:40;16.35;;;10.00;;
41468;SDS011;27206;47.032;15.484;2023-11-21T09:00:08;21.23;;;11.82;;
41468;SDS011;27206;47.032;15.484;2023-11-21T09:02:36;20.48;;;11.75;;
41468;SDS011;27206;47.032;15.484;2023-11-21T09:05:08;21.52;;;11.82;;
41468;SDS011;27206;47.032;15.484;2023-11-21T09:07:35;21.65;;;12.30;;
41468;SDS011;27206;47.032;15.484;2023-11-21T09:10:02;22.15;;;11.73;;
41468;SDS011;27206;47.032;15.484;2023-11-21T09:12:28;19.10;;;11.13;;
41468;SDS011;27206;47.032;15.484;2023-11-21T09:14:53;22.52;;;10.25;;
41468;SDS011;27206;47.032;15.484;2023-11-21T09:17:19;15.60;;;9.13;;
41468;SDS011;27206;47.032;15.484;2023-11-21T09:19:45;23.05;;;9.35;;
41468;SDS011;27206;47.032;15.484;2023-11-21T09:22:15;25.75;;;9.18;;
41468;SDS011;27206;47.032;15.484;2023-11-21T09:24:41;14.80;;;7.40;;
41468;SDS011;27206;47.032;15.484;2023-11-21T09:27:07;14.27;;;7.00;;
41468;SDS011;27206;47.032;15.484;2023-11-21T09:29:34;12.40;;;6.45;;
41468;SDS011;27206;47.032;15.484;2023-11-21T09:32:00;13.10;;;6.80;;
41468;SDS011;27206;47.032;15.484;2023-11-21T09:34:26;11.60;;;6.22;;
41468;SDS011;27206;47.032;15.484;2023-11-21T09:36:52;11.65;;;6.55;;
41468;SDS011;27206;47.032;15.484;2023-11-21T09:39:18;13.75;;;6.25;;
41468;SDS011;27206;47.032;15.484;2023-11-21T09:41:46;12.80;;;6.40;;
41468;SDS011;27206;47.032;15.484;2023-11-21T09:44:43;9.02;;;5.38;;
41468;SDS011;27206;47.032;15.484;2023-11-21T09:47:23;9.52;;;5.70;;
41468;SDS011;27206;47.032;15.484;2023-11-21T09:49:49;8.18;;;5.00;;
41468;SDS011;27206;47.032;15.484;2023-11-21T09:52:22;7.55;;;4.65;;
41468;SDS011;27206;47.032;15.484;2023-11-21T09:54:50;7.97;;;4.70;;
41468;SDS011;27206;47.032;15.484;2023-11-21T09:57:19;9.23;;;5.43;;
41468;SDS011;27206;47.032;15.484;2023-11-21T09:59:50;9.50;;;4.97;;
41468;SDS011;27206;47.032;15.484;2023-11-21T10:02:19;9.23;;;5.25;;
41468;SDS011;27206;47.032;15.484;2023-11-21T10:04:47;9.70;;;5.55;;
41468;SDS011;27206;47.032;15.484;2023-11-21T10:07:13;9.00;;;5.80;;
41468;SDS011;27206;47.032;15.484;2023-11-21T10:09:41;7.85;;;4.25;;
41468;SDS011;27206;47.032;15.484;2023-11-21T10:12:07;7.93;;;4.85;;
41468;SDS011;27206;47.032;15.484;2023-11-21T10:14:35;8.45;;;5.00;;
41468;SDS011;27206;47.032;15.484;2023-11-21T10:17:06;9.95;;;5.18;;
41468;SDS011;27206;47.032;15.484;2023-11-21T10:19:33;8.98;;;5.38;;
41468;SDS011;27206;47.032;15.484;2023-11-21T10:22:01;11.55;;;5.78;;
41468;SDS011;27206;47.032;15.484;2023-11-21T10:24:28;12.57;;;6.20;;
41468;SDS011;27206;47.032;15.484;2023-11-21T10:26:54;9.25;;;5.95;;
41468;SDS011;27206;47.032;15.484;2023-11-21T10:29:20;12.98;;;7.68;;
41468;SDS011;27206;47.032;15.484;2023-11-21T10:31:49;15.18;;;9.10;;
41468;SDS011;27206;47.032;15.484;2023-11-21T10:36:43;13.68;;;7.57;;
41468;SDS011;27206;47.032;15.484;2023-11-21T10:39:09;11.77;;;7.22;;
41468;SDS011;27206;47.032;15.484;2023-11-21T10:41:38;15.98;;;8.48;;
41468;SDS011;27206;47.032;15.484;2023-11-21T10:44:04;15.77;;;8.70;;
41468;SDS011;27206;47.032;15.484;2023-11-21T10:46:34;15.55;;;7.95;;
41468;SDS011;27206;47.032;15.484;2023-11-21T10:49:03;12.30;;;6.65;;
41468;SDS011;27206;47.032;15.484;2023-11-21T10:51:29;10.27;;;6.22;;
41468;SDS011;27206;47.032;15.484;2023-11-21T10:53:54;10.50;;;5.95;;
41468;SDS011;27206;47.032;15.484;2023-11-21T10:56:23;8.52;;;5.50;;
41468;SDS011;27206;47.032;15.484;2023-11-21T10:58:50;12.23;;;5.60;;
41468;SDS011;27206;47.032;15.484;2023-11-21T11:01:19;11.45;;;6.10;;
41468;SDS011;27206;47.032;15.484;2023-11-21T11:03:48;10.05;;;5.15;;
41468;SDS011;27206;47.032;15.484;2023-11-21T11:06:15;9.18;;;5.00;;
41468;SDS011;27206;47.032;15.484;2023-11-21T11:08:41;11.25;;;5.10;;
41468;SDS011;27206;47.032;15.484;2023-11-21T11:11:07;8.35;;;4.47;;
41468;SDS011;27206;47.032;15.484;2023-11-21T11:13:35;10.90;;;5.00;;
41468;SDS011;27206;47.032;15.484;2023-11-21T11:16:02;8.15;;;5.00;;
41468;SDS011;27206;47.032;15.484;2023-11-21T11:18:32;8.70;;;4.50;;
41468;SDS011;27206;47.032;15.484;2023-11-21T11:21:11;6.28;;;3.85;;
41468;SDS011;27206;47.032;15.484;2023-11-21T11:26:55;6.47;;;3.50;;
41468;SDS011;27206;47.032;15.484;2023-11-21T11:35:03;11.15;;;5.55;;
41468;SDS011;27206;47.032;15.484;2023-11-21T11:37:32;9.07;;;5.10;;
41468;SDS011;27206;47.032;15.484;2023-11-21T11:39:58;11.20;;;5.22;;
41468;SDS011;27206;47.032;15.484;2023-11-21T11:42:25;12.35;;;5.00;;
41468;SDS011;27206;47.032;15.484;2023-11-21T11:44:52;8.93;;;4.80;;
41468;SDS011;27206;47.032;15.484;2023-11-21T11:47:20;9.63;;;5.15;;
41468;SDS011;27206;47.032;15.484;2023-11-21T11:52:39;10.27;;;5.43;;
41468;SDS011;27206;47.032;15.484;2023-11-21T11:55:06;9.05;;;4.47;;
41468;SDS011;27206;47.032;15.484;2023-11-21T11:57:36;8.40;;;4.63;;
41468;SDS011;27206;47.032;15.484;2023-11-21T12:02:46;8.90;;;5.00;;
41468;SDS011;27206;47.032;15.484;2023-11-21T12:05:17;8.57;;;5.10;;
41468;SDS011;27206;47.032;15.484;2023-11-21T12:07:45;7.60;;;5.18;;
41468;SDS011;27206;47.032;15.484;2023-11-21T12:10:14;11.23;;;5.85;;
41468;SDS011;27206;47.032;15.484;2023-11-21T12:12:51;18.20;;;6.05;;
41468;SDS011;27206;47.032;15.484;2023-11-21T12:15:18;28.20;;;7.40;;
41468;SDS011;27206;47.032;15.484;2023-11-21T12:17:46;16.83;;;6.47;;
41468;SDS011;27206;47.032;15.484;2023-11-21T12:20:12;9.35;;;6.05;;
41468;SDS011;27206;47.032;15.484;2023-11-21T12:22:46;13.30;;;6.22;;
41468;SDS011;27206;47.032;15.484;2023-11-21T12:25:13;8.80;;;5.68;;
41468;SDS011;27206;47.032;15.484;2023-11-21T12:28:01;10.18;;;5.85;;
41468;SDS011;27206;47.032;15.484;2023-11-21T12:30:31;8.10;;;5.32;;
41468;SDS011;27206;47.032;15.484;2023-11-21T12:33:00;10.00;;;5.63;;
41468;SDS011;27206;47.032;15.484;2023-11-21T12:35:27;9.32;;;5.60;;
41468;SDS011;27206;47.032;15.484;2023-11-21T12:37:55;11.57;;;6.05;;
41468;SDS011;27206;47.032;15.484;2023-11-21T12:40:24;10.63;;;5.68;;
41468;SDS011;27206;47.032;15.484;2023-11-21T12:42:54;8.18;;;4.32;;
41468;SDS011;27206;47.032;15.484;2023-11-21T12:45:22;6.82;;;4.55;;
41468;SDS011;27206;47.032;15.484;2023-11-21T12:47:50;8.45;;;4.85;;
41468;SDS011;27206;47.032;15.484;2023-11-21T12:50:22;7.95;;;5.32;;
41468;SDS011;27206;47.032;15.484;2023-11-21T12:52:51;10.68;;;5.30;;
41468;SDS011;27206;47.032;15.484;2023-11-21T12:55:19;9.73;;;4.85;;
41468;SDS011;27206;47.032;15.484;2023-11-21T12:57:50;8.05;;;4.93;;
41468;SDS011;27206;47.032;15.484;2023-11-21T13:00:20;10.00;;;4.97;;
41468;SDS011;27206;47.032;15.484;2023-11-21T13:02:56;8.35;;;4.53;;
41468;SDS011;27206;47.032;15.484;2023-11-21T13:05:30;10.60;;;5.10;;
41468;SDS011;27206;47.032;15.484;2023-11-21T13:07:58;9.68;;;5.10;;
41468;SDS011;27206;47.032;15.484;2023-11-21T13:10:28;7.85;;;4.90;;
41468;SDS011;27206;47.032;15.484;2023-11-21T13:12:56;11.15;;;5.50;;
41468;SDS011;27206;47.032;15.484;2023-11-21T13:15:24;6.78;;;4.80;;
41468;SDS011;27206;47.032;15.484;2023-11-21T13:17:49;9.73;;;5.55;;
41468;SDS011;27206;47.032;15.484;2023-11-21T13:20:16;9.90;;;5.30;;
41468;SDS011;27206;47.032;15.484;2023-11-21T13:23:00;10.30;;;5.85;;
41468;SDS011;27206;47.032;15.484;2023-11-21T13:25:36;9.90;;;6.20;;
41468;SDS011;27206;47.032;15.484;2023-11-21T13:28:04;10.50;;;6.15;;
41468;SDS011;27206;47.032;15.484;2023-11-21T13:30:30;11.27;;;6.57;;
41468;SDS011;27206;47.032;15.484;2023-11-21T13:33:02;10.82;;;6.90;;
41468;SDS011;27206;47.032;15.484;2023-11-21T13:35:31;11.80;;;6.95;;
41468;SDS011;27206;47.032;15.484;2023-11-21T13:38:10;12.30;;;7.10;;
41468;SDS011;27206;47.032;15.484;2023-11-21T13:40:37;13.15;;;6.60;;
41468;SDS011;27206;47.032;15.484;2023-11-21T13:43:15;12.10;;;7.07;;
41468;SDS011;27206;47.032;15.484;2023-11-21T13:45:46;13.95;;;6.50;;
41468;SDS011;27206;47.032;15.484;2023-11-21T13:48:16;10.38;;;6.70;;
41468;SDS011;27206;47.032;15.484;2023-11-21T13:50:50;13.65;;;7.25;;
41468;SDS011;27206;47.032;15.484;2023-11-21T13:53:35;10.70;;;6.97;;
41468;SDS011;27206;47.032;15.484;2023-11-21T13:56:02;46.13;;;22.80;;
41468;SDS011;27206;47.032;15.484;2023-11-21T13:58:28;53.53;;;23.50;;
41468;SDS011;27206;47.032;15.484;2023-11-21T14:01:12;76.50;;;31.10;;
41468;SDS011;27206;47.032;15.484;2023-11-21T14:04:00;15.20;;;9.35;;
41468;SDS011;27206;47.032;15.484;2023-11-21T14:06:44;16.45;;;9.00;;
41468;SDS011;27206;47.032;15.484;2023-11-21T14:09:21;16.85;;;8.60;;
41468;SDS011;27206;47.032;15.484;2023-11-21T14:11:50;13.23;;;8.40;;
41468;SDS011;27206;47.032;15.484;2023-11-21T14:14:17;12.40;;;8.43;;
41468;SDS011;27206;47.032;15.484;2023-11-21T14:16:44;14.32;;;8.43;;
41468;SDS011;27206;47.032;15.484;2023-11-21T14:19:09;15.13;;;8.63;;
41468;SDS011;27206;47.032;15.484;2023-11-21T14:21:44;17.98;;;9.32;;
41468;SDS011;27206;47.032;15.484;2023-11-21T14:24:14;16.02;;;9.20;;
41468;SDS011;27206;47.032;15.484;2023-11-21T14:26:43;17.83;;;8.93;;
41468;SDS011;27206;47.032;15.484;2023-11-21T14:29:13;18.70;;;10.07;;
41468;SDS011;27206;47.032;15.484;2023-11-21T14:31:44;17.40;;;9.98;;
41468;SDS011;27206;47.032;15.484;2023-11-21T14:34:10;18.92;;;10.15;;